sensor_id;sensor_type;location;lat;lon;timestamp;temperature;humidity
12726;DHT22;6427;49.754;6.106;2022-11-18T00:01:21;9.40;99.90
12726;DHT22;6427;49.754;6.106;2022-11-18T00:03:50;9.60;99.90
12726;DHT22;6427;49.754;6.106;2022-11-18T00:06:23;9.50;99.90
12726;DHT22;6427;49.754;6.106;2022-11-18T00:08:51;9.50;99.90
12726;DHT22;6427;49.754;6.106;2022-11-18T00:11:20;9.50;99.90
12726;DHT22;6427;49.754;6.106;2022-11-18T00:14:05;9.40;99.90
12726;DHT22;6427;49.754;6.106;2022-11-18T00:16:54;9.40;99.90
12726;DHT22;6427;49.754;6.106;2022-11-18T00:19:18;9.30;99.90
12726;DHT22;6427;49.754;6.106;2022-11-18T00:21:45;9.30;99.90
12726;DHT22;6427;49.754;6.106;2022-11-18T00:24:12;9.50;99.90
12726;DHT22;6427;49.754;6.106;2022-11-18T00:26:40;9.80;99.90
12726;DHT22;6427;49.754;6.106;2022-11-18T00:29:10;9.80;99.90
12726;DHT22;6427;49.754;6.106;2022-11-18T00:31:38;9.70;99.90
12726;DHT22;6427;49.754;6.106;2022-11-18T00:34:05;9.70;99.90
12726;DHT22;6427;49.754;6.106;2022-11-18T00:36:33;9.60;99.90
12726;DHT22;6427;49.754;6.106;2022-11-18T00:39:00;9.60;99.90
12726;DHT22;6427;49.754;6.106;2022-11-18T00:41:28;9.60;99.90
12726;DHT22;6427;49.754;6.106;2022-11-18T00:43:56;9.60;99.90
12726;DHT22;6427;49.754;6.106;2022-11-18T00:46:24;9.60;99.90
12726;DHT22;6427;49.754;6.106;2022-11-18T00:48:51;9.60;99.90
12726;DHT22;6427;49.754;6.106;2022-11-18T00:51:20;9.90;99.90
12726;DHT22;6427;49.754;6.106;2022-11-18T00:53:48;9.80;99.90
12726;DHT22;6427;49.754;6.106;2022-11-18T00:56:15;9.90;99.90
12726;DHT22;6427;49.754;6.106;2022-11-18T00:58:43;9.90;99.90
12726;DHT22;6427;49.754;6.106;2022-11-18T01:01:10;9.80;99.90
12726;DHT22;6427;49.754;6.106;2022-11-18T01:03:38;9.80;99.90
12726;DHT22;6427;49.754;6.106;2022-11-18T01:06:05;9.80;99.90
12726;DHT22;6427;49.754;6.106;2022-11-18T01:08:33;9.80;99.90
12726;DHT22;6427;49.754;6.106;2022-11-18T01:11:01;9.70;99.90
12726;DHT22;6427;49.754;6.106;2022-11-18T01:13:50;9.80;99.90
12726;DHT22;6427;49.754;6.106;2022-11-18T01:16:18;9.70;99.90
12726;DHT22;6427;49.754;6.106;2022-11-18T01:18:45;9.70;99.90
12726;DHT22;6427;49.754;6.106;2022-11-18T01:21:13;9.70;99.90
12726;DHT22;6427;49.754;6.106;2022-11-18T01:23:41;9.70;99.90
12726;DHT22;6427;49.754;6.106;2022-11-18T01:26:09;9.70;99.90
12726;DHT22;6427;49.754;6.106;2022-11-18T01:28:37;9.90;99.90
12726;DHT22;6427;49.754;6.106;2022-11-18T01:31:05;9.90;99.90
12726;DHT22;6427;49.754;6.106;2022-11-18T01:33:32;9.90;99.90
12726;DHT22;6427;49.754;6.106;2022-11-18T01:36:00;9.80;99.90
12726;DHT22;6427;49.754;6.106;2022-11-18T01:38:27;9.80;99.90
12726;DHT22;6427;49.754;6.106;2022-11-18T01:40:55;9.70;99.90
12726;DHT22;6427;49.754;6.106;2022-11-18T01:43:22;9.70;99.90
12726;DHT22;6427;49.754;6.106;2022-11-18T01:45:50;9.70;99.90
12726;DHT22;6427;49.754;6.106;2022-11-18T01:48:31;9.70;99.90
12726;DHT22;6427;49.754;6.106;2022-11-18T01:50:56;9.70;99.90
12726;DHT22;6427;49.754;6.106;2022-11-18T01:53:25;9.70;99.90
12726;DHT22;6427;49.754;6.106;2022-11-18T01:55:51;9.90;99.90
12726;DHT22;6427;49.754;6.106;2022-11-18T01:58:26;9.90;99.90
12726;DHT22;6427;49.754;6.106;2022-11-18T02:00:52;9.90;99.90
12726;DHT22;6427;49.754;6.106;2022-11-18T02:03:20;9.90;99.90
12726;DHT22;6427;49.754;6.106;2022-11-18T02:05:48;9.90;99.90
12726;DHT22;6427;49.754;6.106;2022-11-18T02:08:15;9.90;99.90
12726;DHT22;6427;49.754;6.106;2022-11-18T02:10:42;9.90;99.90
12726;DHT22;6427;49.754;6.106;2022-11-18T02:13:11;9.90;99.90
12726;DHT22;6427;49.754;6.106;2022-11-18T02:19:03;9.90;99.90
12726;DHT22;6427;49.754;6.106;2022-11-18T02:21:32;9.90;99.90
12726;DHT22;6427;49.754;6.106;2022-11-18T02:29:52;10.30;99.90
12726;DHT22;6427;49.754;6.106;2022-11-18T02:33:04;10.20;99.90
12726;DHT22;6427;49.754;6.106;2022-11-18T02:34:58;10.10;99.90
12726;DHT22;6427;49.754;6.106;2022-11-18T02:37:21;10.10;99.90
12726;DHT22;6427;49.754;6.106;2022-11-18T02:42:20;10.30;99.90
12726;DHT22;6427;49.754;6.106;2022-11-18T02:44:49;10.30;99.90
12726;DHT22;6427;49.754;6.106;2022-11-18T02:47:16;10.40;99.90
12726;DHT22;6427;49.754;6.106;2022-11-18T02:49:45;10.40;99.90
12726;DHT22;6427;49.754;6.106;2022-11-18T02:52:12;10.50;99.90
12726;DHT22;6427;49.754;6.106;2022-11-18T02:54:40;10.50;99.90
12726;DHT22;6427;49.754;6.106;2022-11-18T02:57:08;10.60;99.90
12726;DHT22;6427;49.754;6.106;2022-11-18T02:59:36;10.60;99.90
12726;DHT22;6427;49.754;6.106;2022-11-18T03:02:03;10.50;99.90
12726;DHT22;6427;49.754;6.106;2022-11-18T03:04:31;10.40;99.90
12726;DHT22;6427;49.754;6.106;2022-11-18T03:07:21;10.30;99.90
12726;DHT22;6427;49.754;6.106;2022-11-18T03:09:49;10.20;99.90
12726;DHT22;6427;49.754;6.106;2022-11-18T03:20:22;10.00;99.90
12726;DHT22;6427;49.754;6.106;2022-11-18T03:25:27;10.20;99.90
12726;DHT22;6427;49.754;6.106;2022-11-18T03:28:29;10.20;99.90
12726;DHT22;6427;49.754;6.106;2022-11-18T03:30:26;10.20;99.90
12726;DHT22;6427;49.754;6.106;2022-11-18T03:32:59;10.20;99.90
12726;DHT22;6427;49.754;6.106;2022-11-18T03:35:25;10.10;99.90
12726;DHT22;6427;49.754;6.106;2022-11-18T03:37:54;10.10;99.90
12726;DHT22;6427;49.754;6.106;2022-11-18T03:40:21;10.10;99.90
12726;DHT22;6427;49.754;6.106;2022-11-18T03:42:51;10.00;99.90
12726;DHT22;6427;49.754;6.106;2022-11-18T03:45:23;10.00;99.90
12726;DHT22;6427;49.754;6.106;2022-11-18T03:47:54;10.00;99.90
12726;DHT22;6427;49.754;6.106;2022-11-18T03:50:20;10.00;99.90
12726;DHT22;6427;49.754;6.106;2022-11-18T03:52:47;9.90;99.90
12726;DHT22;6427;49.754;6.106;2022-11-18T03:55:19;9.90;99.90
12726;DHT22;6427;49.754;6.106;2022-11-18T03:58:02;9.90;99.90
12726;DHT22;6427;49.754;6.106;2022-11-18T04:00:18;9.90;99.90
12726;DHT22;6427;49.754;6.106;2022-11-18T04:02:46;9.90;99.90
12726;DHT22;6427;49.754;6.106;2022-11-18T04:05:14;9.90;99.90
12726;DHT22;6427;49.754;6.106;2022-11-18T04:08:01;9.90;99.90
12726;DHT22;6427;49.754;6.106;2022-11-18T04:10:47;9.90;99.90
12726;DHT22;6427;49.754;6.106;2022-11-18T04:13:15;9.90;99.90
12726;DHT22;6427;49.754;6.106;2022-11-18T04:15:41;9.90;99.90
12726;DHT22;6427;49.754;6.106;2022-11-18T04:18:09;9.90;99.90
12726;DHT22;6427;49.754;6.106;2022-11-18T04:20:37;9.90;99.90
12726;DHT22;6427;49.754;6.106;2022-11-18T04:23:05;9.90;99.90
12726;DHT22;6427;49.754;6.106;2022-11-18T04:25:32;9.90;99.90
12726;DHT22;6427;49.754;6.106;2022-11-18T04:27:59;10.10;99.90
12726;DHT22;6427;49.754;6.106;2022-11-18T04:30:27;10.20;99.90
12726;DHT22;6427;49.754;6.106;2022-11-18T04:32:55;10.10;99.90
12726;DHT22;6427;49.754;6.106;2022-11-18T04:35:23;10.10;99.90
12726;DHT22;6427;49.754;6.106;2022-11-18T04:37:50;10.10;99.90
12726;DHT22;6427;49.754;6.106;2022-11-18T04:40:18;10.00;99.90
12726;DHT22;6427;49.754;6.106;2022-11-18T04:42:46;10.00;99.90
12726;DHT22;6427;49.754;6.106;2022-11-18T04:45:14;10.00;99.90
12726;DHT22;6427;49.754;6.106;2022-11-18T04:47:41;10.00;99.90
12726;DHT22;6427;49.754;6.106;2022-11-18T04:50:09;10.00;99.90
12726;DHT22;6427;49.754;6.106;2022-11-18T04:52:36;10.20;99.90
12726;DHT22;6427;49.754;6.106;2022-11-18T04:55:05;10.40;99.90
12726;DHT22;6427;49.754;6.106;2022-11-18T04:57:32;10.40;99.90
12726;DHT22;6427;49.754;6.106;2022-11-18T05:00:00;10.30;99.90
12726;DHT22;6427;49.754;6.106;2022-11-18T05:02:28;10.20;99.90
12726;DHT22;6427;49.754;6.106;2022-11-18T05:04:57;10.10;99.90
12726;DHT22;6427;49.754;6.106;2022-11-18T05:07:24;10.10;99.90
12726;DHT22;6427;49.754;6.106;2022-11-18T05:09:52;10.30;99.90
12726;DHT22;6427;49.754;6.106;2022-11-18T05:12:20;10.20;99.90
12726;DHT22;6427;49.754;6.106;2022-11-18T05:15:07;10.10;99.90
12726;DHT22;6427;49.754;6.106;2022-11-18T05:17:35;10.10;99.90
12726;DHT22;6427;49.754;6.106;2022-11-18T05:20:02;10.00;99.90
12726;DHT22;6427;49.754;6.106;2022-11-18T05:22:30;10.00;99.90
12726;DHT22;6427;49.754;6.106;2022-11-18T05:24:57;9.90;99.90
12726;DHT22;6427;49.754;6.106;2022-11-18T05:27:25;9.90;99.90
12726;DHT22;6427;49.754;6.106;2022-11-18T05:29:52;9.90;99.90
12726;DHT22;6427;49.754;6.106;2022-11-18T05:32:20;10.10;99.90
12726;DHT22;6427;49.754;6.106;2022-11-18T05:34:48;10.10;99.90
12726;DHT22;6427;49.754;6.106;2022-11-18T05:37:16;10.00;99.90
12726;DHT22;6427;49.754;6.106;2022-11-18T05:39:43;10.00;99.90
12726;DHT22;6427;49.754;6.106;2022-11-18T05:42:11;10.00;99.90
12726;DHT22;6427;49.754;6.106;2022-11-18T05:44:57;10.00;99.90
12726;DHT22;6427;49.754;6.106;2022-11-18T05:47:26;9.90;99.90
12726;DHT22;6427;49.754;6.106;2022-11-18T05:49:53;9.90;99.90
12726;DHT22;6427;49.754;6.106;2022-11-18T05:52:21;9.90;99.90
12726;DHT22;6427;49.754;6.106;2022-11-18T05:54:49;9.90;99.90
12726;DHT22;6427;49.754;6.106;2022-11-18T05:57:16;9.90;99.90
12726;DHT22;6427;49.754;6.106;2022-11-18T05:59:44;9.80;99.90
12726;DHT22;6427;49.754;6.106;2022-11-18T06:02:17;9.80;99.90
12726;DHT22;6427;49.754;6.106;2022-11-18T06:04:46;9.80;99.90
12726;DHT22;6427;49.754;6.106;2022-11-18T06:07:14;9.80;99.90
12726;DHT22;6427;49.754;6.106;2022-11-18T06:09:41;9.80;99.90
12726;DHT22;6427;49.754;6.106;2022-11-18T06:12:08;10.00;99.90
12726;DHT22;6427;49.754;6.106;2022-11-18T06:14:37;10.10;99.90
12726;DHT22;6427;49.754;6.106;2022-11-18T06:17:04;10.00;99.90
12726;DHT22;6427;49.754;6.106;2022-11-18T06:19:31;10.00;99.90
12726;DHT22;6427;49.754;6.106;2022-11-18T06:22:00;10.50;99.90
12726;DHT22;6427;49.754;6.106;2022-11-18T06:24:27;10.50;99.90
12726;DHT22;6427;49.754;6.106;2022-11-18T06:26:55;10.40;99.90
12726;DHT22;6427;49.754;6.106;2022-11-18T06:29:22;10.60;99.90
12726;DHT22;6427;49.754;6.106;2022-11-18T06:31:50;10.50;99.90
12726;DHT22;6427;49.754;6.106;2022-11-18T06:34:18;10.40;99.90
12726;DHT22;6427;49.754;6.106;2022-11-18T06:36:45;10.30;99.90
12726;DHT22;6427;49.754;6.106;2022-11-18T06:39:13;10.50;99.90
12726;DHT22;6427;49.754;6.106;2022-11-18T06:41:40;10.40;99.90
12726;DHT22;6427;49.754;6.106;2022-11-18T06:44:12;10.20;99.90
12726;DHT22;6427;49.754;6.106;2022-11-18T06:46:40;10.20;99.90
12726;DHT22;6427;49.754;6.106;2022-11-18T06:49:24;10.10;99.90
12726;DHT22;6427;49.754;6.106;2022-11-18T06:51:51;10.10;99.90
12726;DHT22;6427;49.754;6.106;2022-11-18T06:54:18;10.10;99.90
12726;DHT22;6427;49.754;6.106;2022-11-18T06:56:46;10.00;99.90
12726;DHT22;6427;49.754;6.106;2022-11-18T06:59:14;10.00;99.90
12726;DHT22;6427;49.754;6.106;2022-11-18T07:01:42;10.00;99.90
12726;DHT22;6427;49.754;6.106;2022-11-18T07:04:10;10.20;99.90
12726;DHT22;6427;49.754;6.106;2022-11-18T07:06:39;10.20;99.90
12726;DHT22;6427;49.754;6.106;2022-11-18T07:09:06;10.20;99.90
12726;DHT22;6427;49.754;6.106;2022-11-18T07:11:34;10.10;99.90
12726;DHT22;6427;49.754;6.106;2022-11-18T07:14:02;10.10;99.90
12726;DHT22;6427;49.754;6.106;2022-11-18T07:16:30;10.00;99.90
12726;DHT22;6427;49.754;6.106;2022-11-18T07:18:58;10.00;99.90
12726;DHT22;6427;49.754;6.106;2022-11-18T07:21:26;10.00;99.90
12726;DHT22;6427;49.754;6.106;2022-11-18T07:23:54;10.00;99.90
12726;DHT22;6427;49.754;6.106;2022-11-18T07:26:21;10.20;99.90
12726;DHT22;6427;49.754;6.106;2022-11-18T07:28:48;10.20;99.90
12726;DHT22;6427;49.754;6.106;2022-11-18T07:31:18;10.10;99.90
12726;DHT22;6427;49.754;6.106;2022-11-18T07:33:45;10.10;99.90
12726;DHT22;6427;49.754;6.106;2022-11-18T07:36:13;10.10;99.90
12726;DHT22;6427;49.754;6.106;2022-11-18T07:38:40;10.10;99.90
12726;DHT22;6427;49.754;6.106;2022-11-18T07:41:09;10.10;99.90
12726;DHT22;6427;49.754;6.106;2022-11-18T07:43:36;10.00;99.90
12726;DHT22;6427;49.754;6.106;2022-11-18T07:46:13;10.00;99.90
12726;DHT22;6427;49.754;6.106;2022-11-18T07:48:40;10.00;99.90
12726;DHT22;6427;49.754;6.106;2022-11-18T07:51:07;10.20;99.90
12726;DHT22;6427;49.754;6.106;2022-11-18T07:53:35;10.20;99.90
12726;DHT22;6427;49.754;6.106;2022-11-18T07:56:03;10.20;99.90
12726;DHT22;6427;49.754;6.106;2022-11-18T07:58:30;10.10;99.90
12726;DHT22;6427;49.754;6.106;2022-11-18T08:00:57;10.30;99.90
12726;DHT22;6427;49.754;6.106;2022-11-18T08:03:28;10.30;99.90
12726;DHT22;6427;49.754;6.106;2022-11-18T08:05:58;10.50;99.90
12726;DHT22;6427;49.754;6.106;2022-11-18T08:08:26;10.40;99.90
12726;DHT22;6427;49.754;6.106;2022-11-18T08:10:55;10.40;99.90
12726;DHT22;6427;49.754;6.106;2022-11-18T08:13:23;10.30;99.90
12726;DHT22;6427;49.754;6.106;2022-11-18T08:15:50;10.50;99.90
12726;DHT22;6427;49.754;6.106;2022-11-18T08:18:18;10.40;99.90
12726;DHT22;6427;49.754;6.106;2022-11-18T08:20:45;10.30;99.90
12726;DHT22;6427;49.754;6.106;2022-11-18T08:23:13;10.20;99.90
12726;DHT22;6427;49.754;6.106;2022-11-18T08:25:41;10.30;99.90
12726;DHT22;6427;49.754;6.106;2022-11-18T08:28:09;10.30;99.90
12726;DHT22;6427;49.754;6.106;2022-11-18T08:30:37;10.10;99.90
12726;DHT22;6427;49.754;6.106;2022-11-18T08:33:04;10.10;99.90
12726;DHT22;6427;49.754;6.106;2022-11-18T08:35:32;10.30;99.90
12726;DHT22;6427;49.754;6.106;2022-11-18T08:38:00;10.40;99.90
12726;DHT22;6427;49.754;6.106;2022-11-18T08:40:28;10.40;99.90
12726;DHT22;6427;49.754;6.106;2022-11-18T08:42:55;10.30;99.90
12726;DHT22;6427;49.754;6.106;2022-11-18T08:45:23;10.20;99.90
12726;DHT22;6427;49.754;6.106;2022-11-18T08:47:51;10.10;99.90
12726;DHT22;6427;49.754;6.106;2022-11-18T08:50:18;10.10;99.90
12726;DHT22;6427;49.754;6.106;2022-11-18T08:52:47;10.00;99.90
12726;DHT22;6427;49.754;6.106;2022-11-18T08:55:15;10.00;99.90
12726;DHT22;6427;49.754;6.106;2022-11-18T08:57:42;9.90;99.90
12726;DHT22;6427;49.754;6.106;2022-11-18T09:00:10;10.00;99.90
12726;DHT22;6427;49.754;6.106;2022-11-18T09:02:38;10.00;99.90
12726;DHT22;6427;49.754;6.106;2022-11-18T09:05:06;10.10;99.90
12726;DHT22;6427;49.754;6.106;2022-11-18T09:07:33;10.10;99.90
12726;DHT22;6427;49.754;6.106;2022-11-18T09:10:01;10.20;99.90
12726;DHT22;6427;49.754;6.106;2022-11-18T09:12:29;10.20;99.90
12726;DHT22;6427;49.754;6.106;2022-11-18T09:14:57;10.20;99.90
12726;DHT22;6427;49.754;6.106;2022-11-18T09:17:25;10.20;99.90
12726;DHT22;6427;49.754;6.106;2022-11-18T09:19:52;10.20;99.90
12726;DHT22;6427;49.754;6.106;2022-11-18T09:22:20;10.20;99.90
12726;DHT22;6427;49.754;6.106;2022-11-18T09:24:48;10.40;99.90
12726;DHT22;6427;49.754;6.106;2022-11-18T09:27:16;10.50;99.90
12726;DHT22;6427;49.754;6.106;2022-11-18T09:29:44;10.50;99.90
12726;DHT22;6427;49.754;6.106;2022-11-18T09:32:12;10.60;99.90
12726;DHT22;6427;49.754;6.106;2022-11-18T09:34:39;10.60;99.90
12726;DHT22;6427;49.754;6.106;2022-11-18T09:37:07;10.60;99.90
12726;DHT22;6427;49.754;6.106;2022-11-18T09:39:35;10.70;99.90
12726;DHT22;6427;49.754;6.106;2022-11-18T09:47:24;10.80;99.90
12726;DHT22;6427;49.754;6.106;2022-11-18T09:49:49;10.90;99.90
12726;DHT22;6427;49.754;6.106;2022-11-18T09:52:32;10.90;99.90
12726;DHT22;6427;49.754;6.106;2022-11-18T09:54:59;11.00;99.90
12726;DHT22;6427;49.754;6.106;2022-11-18T09:57:36;11.10;99.90
12726;DHT22;6427;49.754;6.106;2022-11-18T10:00:13;11.10;99.90
12726;DHT22;6427;49.754;6.106;2022-11-18T10:02:59;11.10;99.90
12726;DHT22;6427;49.754;6.106;2022-11-18T10:05:27;11.10;99.90
12726;DHT22;6427;49.754;6.106;2022-11-18T10:08:02;11.10;99.90
12726;DHT22;6427;49.754;6.106;2022-11-18T10:10:53;11.10;99.90
12726;DHT22;6427;49.754;6.106;2022-11-18T10:13:26;11.20;99.90
12726;DHT22;6427;49.754;6.106;2022-11-18T10:18:37;11.50;99.90
12726;DHT22;6427;49.754;6.106;2022-11-18T10:24:19;11.50;99.90
12726;DHT22;6427;49.754;6.106;2022-11-18T10:26:01;11.50;99.90
12726;DHT22;6427;49.754;6.106;2022-11-18T10:28:29;11.50;99.90
12726;DHT22;6427;49.754;6.106;2022-11-18T10:31:08;11.50;99.90
12726;DHT22;6427;49.754;6.106;2022-11-18T10:33:35;11.50;99.90
12726;DHT22;6427;49.754;6.106;2022-11-18T10:36:28;11.50;99.90
12726;DHT22;6427;49.754;6.106;2022-11-18T10:39:11;11.50;99.90
12726;DHT22;6427;49.754;6.106;2022-11-18T10:41:42;11.40;99.90
12726;DHT22;6427;49.754;6.106;2022-11-18T10:44:07;11.60;99.90
12726;DHT22;6427;49.754;6.106;2022-11-18T10:46:33;11.90;99.90
12726;DHT22;6427;49.754;6.106;2022-11-18T10:51:44;11.80;99.90
12726;DHT22;6427;49.754;6.106;2022-11-18T10:54:20;11.80;99.90
12726;DHT22;6427;49.754;6.106;2022-11-18T10:56:51;11.70;99.90
12726;DHT22;6427;49.754;6.106;2022-11-18T11:02:30;11.70;99.90
12726;DHT22;6427;49.754;6.106;2022-11-18T11:05:02;11.50;99.90
12726;DHT22;6427;49.754;6.106;2022-11-18T11:07:34;11.40;99.90
12726;DHT22;6427;49.754;6.106;2022-11-18T11:10:16;11.30;99.90
12726;DHT22;6427;49.754;6.106;2022-11-18T11:12:30;11.30;99.90
12726;DHT22;6427;49.754;6.106;2022-11-18T11:14:57;11.20;99.90
12726;DHT22;6427;49.754;6.106;2022-11-18T11:22:43;11.30;99.90
12726;DHT22;6427;49.754;6.106;2022-11-18T11:25:27;11.20;99.90
12726;DHT22;6427;49.754;6.106;2022-11-18T11:30:24;11.10;99.90
12726;DHT22;6427;49.754;6.106;2022-11-18T11:33:21;11.10;99.90
12726;DHT22;6427;49.754;6.106;2022-11-18T11:38:45;11.20;99.90
12726;DHT22;6427;49.754;6.106;2022-11-18T11:41:44;11.20;99.90
12726;DHT22;6427;49.754;6.106;2022-11-18T11:46:56;11.20;99.90
12726;DHT22;6427;49.754;6.106;2022-11-18T11:49:29;11.20;99.90
12726;DHT22;6427;49.754;6.106;2022-11-18T11:52:08;11.20;99.90
12726;DHT22;6427;49.754;6.106;2022-11-18T11:54:56;11.40;99.90
12726;DHT22;6427;49.754;6.106;2022-11-18T11:57:39;11.40;99.90
12726;DHT22;6427;49.754;6.106;2022-11-18T12:00:11;11.40;99.90
12726;DHT22;6427;49.754;6.106;2022-11-18T12:05:19;11.30;99.90
12726;DHT22;6427;49.754;6.106;2022-11-18T12:07:58;11.50;99.90
12726;DHT22;6427;49.754;6.106;2022-11-18T12:10:28;11.80;99.90
12726;DHT22;6427;49.754;6.106;2022-11-18T12:13:16;11.60;99.90
12726;DHT22;6427;49.754;6.106;2022-11-18T12:15:43;11.70;99.90
12726;DHT22;6427;49.754;6.106;2022-11-18T12:20:55;11.60;99.90
12726;DHT22;6427;49.754;6.106;2022-11-18T12:23:26;11.70;99.90
12726;DHT22;6427;49.754;6.106;2022-11-18T12:25:55;11.60;99.90
12726;DHT22;6427;49.754;6.106;2022-11-18T12:36:33;11.60;99.90
12726;DHT22;6427;49.754;6.106;2022-11-18T12:41:53;11.50;99.90
12726;DHT22;6427;49.754;6.106;2022-11-18T12:44:39;11.40;99.90
12726;DHT22;6427;49.754;6.106;2022-11-18T12:47:10;11.40;99.90
12726;DHT22;6427;49.754;6.106;2022-11-18T12:52:18;11.30;99.90
12726;DHT22;6427;49.754;6.106;2022-11-18T12:57:01;11.40;99.90
12726;DHT22;6427;49.754;6.106;2022-11-18T12:59:32;11.40;99.90
12726;DHT22;6427;49.754;6.106;2022-11-18T13:04:38;11.40;99.90
12726;DHT22;6427;49.754;6.106;2022-11-18T13:07:08;11.40;99.90
12726;DHT22;6427;49.754;6.106;2022-11-18T13:09:34;11.50;99.90
12726;DHT22;6427;49.754;6.106;2022-11-18T13:12:06;11.40;99.90
12726;DHT22;6427;49.754;6.106;2022-11-18T13:14:38;11.40;99.90
12726;DHT22;6427;49.754;6.106;2022-11-18T13:20:29;11.40;99.90
12726;DHT22;6427;49.754;6.106;2022-11-18T13:23:25;11.40;99.90
12726;DHT22;6427;49.754;6.106;2022-11-18T13:25:48;11.40;99.90
12726;DHT22;6427;49.754;6.106;2022-11-18T13:28:24;11.40;99.90
12726;DHT22;6427;49.754;6.106;2022-11-18T13:30:50;11.40;99.90
12726;DHT22;6427;49.754;6.106;2022-11-18T13:33:16;11.40;99.90
12726;DHT22;6427;49.754;6.106;2022-11-18T13:35:44;11.40;99.90
12726;DHT22;6427;49.754;6.106;2022-11-18T13:38:19;11.40;99.90
12726;DHT22;6427;49.754;6.106;2022-11-18T13:40:46;11.40;99.90
12726;DHT22;6427;49.754;6.106;2022-11-18T13:43:31;11.40;99.90
12726;DHT22;6427;49.754;6.106;2022-11-18T13:46:10;11.40;99.90
12726;DHT22;6427;49.754;6.106;2022-11-18T13:48:32;11.40;99.90
12726;DHT22;6427;49.754;6.106;2022-11-18T13:51:00;11.60;99.90
12726;DHT22;6427;49.754;6.106;2022-11-18T13:53:29;11.50;99.90
12726;DHT22;6427;49.754;6.106;2022-11-18T13:58:38;11.50;99.90
12726;DHT22;6427;49.754;6.106;2022-11-18T14:01:11;11.40;99.90
12726;DHT22;6427;49.754;6.106;2022-11-18T14:06:23;11.30;99.90
12726;DHT22;6427;49.754;6.106;2022-11-18T14:09:01;11.20;99.90
12726;DHT22;6427;49.754;6.106;2022-11-18T14:11:38;11.20;99.90
12726;DHT22;6427;49.754;6.106;2022-11-18T14:14:04;11.20;99.90
12726;DHT22;6427;49.754;6.106;2022-11-18T14:16:33;11.20;99.90
12726;DHT22;6427;49.754;6.106;2022-11-18T14:18:59;11.10;99.90
12726;DHT22;6427;49.754;6.106;2022-11-18T14:21:28;11.30;99.90
12726;DHT22;6427;49.754;6.106;2022-11-18T14:23:55;11.60;99.90
12726;DHT22;6427;49.754;6.106;2022-11-18T14:26:25;11.50;99.90
12726;DHT22;6427;49.754;6.106;2022-11-18T14:28:53;11.40;99.90
12726;DHT22;6427;49.754;6.106;2022-11-18T14:31:26;11.50;99.90
12726;DHT22;6427;49.754;6.106;2022-11-18T14:36:35;11.30;99.90
12726;DHT22;6427;49.754;6.106;2022-11-18T14:39:10;11.20;99.90
12726;DHT22;6427;49.754;6.106;2022-11-18T14:41:31;11.30;99.90
12726;DHT22;6427;49.754;6.106;2022-11-18T14:44:13;11.20;99.90
12726;DHT22;6427;49.754;6.106;2022-11-18T14:46:41;11.10;99.90
12726;DHT22;6427;49.754;6.106;2022-11-18T14:49:18;11.00;99.90
12726;DHT22;6427;49.754;6.106;2022-11-18T14:51:45;11.20;99.90
12726;DHT22;6427;49.754;6.106;2022-11-18T14:54:13;11.10;99.90
12726;DHT22;6427;49.754;6.106;2022-11-18T14:56:40;11.00;99.90
12726;DHT22;6427;49.754;6.106;2022-11-18T14:59:11;11.00;99.90
12726;DHT22;6427;49.754;6.106;2022-11-18T15:01:39;10.90;99.90
12726;DHT22;6427;49.754;6.106;2022-11-18T15:04:06;10.80;99.90
12726;DHT22;6427;49.754;6.106;2022-11-18T15:06:34;10.80;99.90
12726;DHT22;6427;49.754;6.106;2022-11-18T15:09:01;10.80;99.90
12726;DHT22;6427;49.754;6.106;2022-11-18T15:11:29;10.80;99.90
12726;DHT22;6427;49.754;6.106;2022-11-18T15:13:57;10.70;99.90
12726;DHT22;6427;49.754;6.106;2022-11-18T15:16:26;11.00;99.90
12726;DHT22;6427;49.754;6.106;2022-11-18T15:18:53;11.00;99.90
12726;DHT22;6427;49.754;6.106;2022-11-18T15:21:20;11.00;99.90
12726;DHT22;6427;49.754;6.106;2022-11-18T15:23:47;10.90;99.90
12726;DHT22;6427;49.754;6.106;2022-11-18T15:26:25;11.10;99.90
12726;DHT22;6427;49.754;6.106;2022-11-18T15:28:52;11.10;99.90
12726;DHT22;6427;49.754;6.106;2022-11-18T15:31:19;11.00;99.90
12726;DHT22;6427;49.754;6.106;2022-11-18T15:33:47;10.90;99.90
12726;DHT22;6427;49.754;6.106;2022-11-18T15:36:18;10.80;99.90
12726;DHT22;6427;49.754;6.106;2022-11-18T15:38:45;10.70;99.90
12726;DHT22;6427;49.754;6.106;2022-11-18T15:41:16;10.70;99.90
12726;DHT22;6427;49.754;6.106;2022-11-18T15:43:47;10.60;99.90
12726;DHT22;6427;49.754;6.106;2022-11-18T15:46:11;10.50;99.90
12726;DHT22;6427;49.754;6.106;2022-11-18T15:48:39;10.50;99.90
12726;DHT22;6427;49.754;6.106;2022-11-18T15:51:06;10.50;99.90
12726;DHT22;6427;49.754;6.106;2022-11-18T15:53:34;10.40;99.90
12726;DHT22;6427;49.754;6.106;2022-11-18T15:58:52;10.30;99.90
12726;DHT22;6427;49.754;6.106;2022-11-18T16:01:20;10.20;99.90
12726;DHT22;6427;49.754;6.106;2022-11-18T16:03:47;10.20;99.90
12726;DHT22;6427;49.754;6.106;2022-11-18T16:06:16;10.20;99.90
12726;DHT22;6427;49.754;6.106;2022-11-18T16:08:44;10.20;99.90
12726;DHT22;6427;49.754;6.106;2022-11-18T16:11:12;10.10;99.90
12726;DHT22;6427;49.754;6.106;2022-11-18T16:14:00;10.10;99.90
12726;DHT22;6427;49.754;6.106;2022-11-18T16:16:27;10.10;99.90
12726;DHT22;6427;49.754;6.106;2022-11-18T16:18:58;10.10;99.90
12726;DHT22;6427;49.754;6.106;2022-11-18T16:21:25;10.10;99.90
12726;DHT22;6427;49.754;6.106;2022-11-18T16:23:56;10.10;99.90
12726;DHT22;6427;49.754;6.106;2022-11-18T16:26:23;10.00;99.90
12726;DHT22;6427;49.754;6.106;2022-11-18T16:28:51;10.00;99.90
12726;DHT22;6427;49.754;6.106;2022-11-18T16:31:18;10.00;99.90
12726;DHT22;6427;49.754;6.106;2022-11-18T16:34:08;9.90;99.90
12726;DHT22;6427;49.754;6.106;2022-11-18T16:36:41;9.80;99.90
12726;DHT22;6427;49.754;6.106;2022-11-18T16:41:35;10.00;99.90
12726;DHT22;6427;49.754;6.106;2022-11-18T16:44:03;10.00;99.90
12726;DHT22;6427;49.754;6.106;2022-11-18T16:46:32;9.90;99.90
12726;DHT22;6427;49.754;6.106;2022-11-18T16:48:58;9.90;99.90
12726;DHT22;6427;49.754;6.106;2022-11-18T16:51:29;9.80;99.90
12726;DHT22;6427;49.754;6.106;2022-11-18T16:54:03;10.00;99.90
12726;DHT22;6427;49.754;6.106;2022-11-18T16:56:30;10.00;99.90
12726;DHT22;6427;49.754;6.106;2022-11-18T16:59:02;10.00;99.90
12726;DHT22;6427;49.754;6.106;2022-11-18T17:01:28;10.00;99.90
12726;DHT22;6427;49.754;6.106;2022-11-18T17:03:57;10.00;99.90
12726;DHT22;6427;49.754;6.106;2022-11-18T17:06:24;10.00;99.90
12726;DHT22;6427;49.754;6.106;2022-11-18T17:08:52;9.90;99.90
12726;DHT22;6427;49.754;6.106;2022-11-18T17:11:21;9.90;99.90
12726;DHT22;6427;49.754;6.106;2022-11-18T17:13:48;9.90;99.90
12726;DHT22;6427;49.754;6.106;2022-11-18T17:16:16;9.90;99.90
12726;DHT22;6427;49.754;6.106;2022-11-18T17:18:44;9.90;99.90
12726;DHT22;6427;49.754;6.106;2022-11-18T17:21:12;9.90;99.90
12726;DHT22;6427;49.754;6.106;2022-11-18T17:23:40;9.90;99.90
12726;DHT22;6427;49.754;6.106;2022-11-18T17:26:08;9.90;99.90
12726;DHT22;6427;49.754;6.106;2022-11-18T17:28:35;9.90;99.90
12726;DHT22;6427;49.754;6.106;2022-11-18T17:31:12;10.10;99.90
12726;DHT22;6427;49.754;6.106;2022-11-18T17:33:39;10.10;99.90
12726;DHT22;6427;49.754;6.106;2022-11-18T17:36:07;10.00;99.90
12726;DHT22;6427;49.754;6.106;2022-11-18T17:38:35;10.00;99.90